If you wish to contribute or participate in the discussions about articles you are invited to join SKYbrary as a registered user

 Actions

Santa Rosa Airport

From SKYbrary Wiki

SAZR
Airport
ICAO: SAZR – IATA: RSA
Summary
Name Santa Rosa Airport
Region South America and Caribbean
Territory Argentina AR.gif
Location Santa Rosa, La Pampa
Serving Santa Rosa
Elevation 192.024 m
630 ft
630 ft192.024 m
Type medium airport
Coordinates 36° 35' 17.96" S, 64° 16' 32.50" W
Runways
Designator Length Width Surface ROPS
1/19 2300 m7,545.932 ft
30 m98.425 ft
ASP /


METAR
Observation SAZR 200317Z 36005KT 8000 -TSRA FEW040 SCT050CB OVC100 25/18 Q1011
Station Santa Rosa Aerodrome
Date/Time 20 November 2019 03:17:00
Wind direction 360°
Wind speed 05 kts
Lowest cloud amount few clouds
Temperature 25°C
Dew point 18°C
Humidity 65%
QNH 1011 hPa
Weather condition n/a

Airport serving Santa Rosa, La Pampa Province, Argentina.

Climatology

Humid Sub-tropical climate (Köppen climate classification Cfa).

Maps

Terrain

Loading map...

Airport Layout

Loading map...


Accidents & Serious Incidents at or in vicinity of SAZR

None on SKYbrary